Time;durP1;ratioP1;P1;durP2;ratioP2;P2;SDS_P1;SDS_P2;PMS_P1;PMS_P2;Temp;Humidity;BMP_temperature;BMP_pressure;BME280_temperature;BME280_humidity;BME280_pressure;Samples;Min_cycle;Max_cycle;Signal;HPM_P1;HPM_P2
2023/10/02 00:01:53;;;;;;;1999.90;999.90;;;;;;;;;;4971822;28;20101;-63
2023/10/02 00:04:20;;;;;;;1999.90;999.90;;;;;;;;;;4971583;28;20029;-63
2023/10/02 00:06:51;;;;;;;1999.90;999.90;;;;;;;;;;4970856;28;20081;-63
2023/10/02 00:09:20;;;;;;;1999.90;999.90;;;;;;;;;;4971641;28;20023;-63
2023/10/02 00:11:47;;;;;;;1999.90;999.90;;;;;;;;;;4970931;28;20026;-63
2023/10/02 00:16:59;;;;;;;1999.90;999.90;;;;;;;;;;4971320;28;20023;-63
2023/10/02 00:19:45;;;;;;;1999.90;999.90;;;;;;;;;;4971193;28;20019;-63
2023/10/02 00:22:34;;;;;;;1999.90;999.90;;;;;;;;;;4970726;28;20050;-63
2023/10/02 00:24:58;;;;;;;1999.90;999.90;;;;;;;;;;4970825;28;20045;-63
2023/10/02 00:27:24;;;;;;;1999.90;999.90;;;;;;;;;;4971257;28;20372;-63
2023/10/02 00:29:57;;;;;;;1999.90;999.90;;;;;;;;;;4971122;28;20026;-64
2023/10/02 00:32:26;;;;;;;1999.90;999.90;;;;;;;;;;4953769;28;20539;-62
2023/10/02 00:34:52;;;;;;;1999.90;999.90;;;;;;;;;;4971164;28;20089;-61
2023/10/02 00:37:19;;;;;;;1999.90;999.90;;;;;;;;;;4970965;28;20023;-64
2023/10/02 00:39:51;;;;;;;1999.90;999.90;;;;;;;;;;4971485;28;20550;-61
2023/10/02 00:42:28;;;;;;;1999.90;999.90;;;;;;;;;;4972698;28;20519;-62
2023/10/02 00:44:56;;;;;;;1999.90;999.90;;;;;;;;;;4974263;28;20057;-62
2023/10/02 00:47:38;;;;;;;1999.90;999.90;;;;;;;;;;4974918;28;20069;-63
2023/10/02 00:50:10;;;;;;;;;;;;;;;;;;4974989;28;20037;-63
2023/10/02 00:52:40;;;;;;;1999.90;999.90;;;;;;;;;;4974418;28;19917;-62
2023/10/02 00:55:08;;;;;;;1999.90;999.90;;;;;;;;;;4974307;28;20042;-62
2023/10/02 00:57:38;;;;;;;1999.90;999.90;;;;;;;;;;4973961;28;20400;-63
2023/10/02 01:00:17;;;;;;;1999.90;999.90;;;;;;;;;;4974662;28;20030;-62
2023/10/02 01:02:50;;;;;;;1999.90;999.90;;;;;;;;;;4974353;28;20502;-62
2023/10/02 01:05:21;;;;;;;1999.90;999.90;;;;;;;;;;4974399;28;20454;-62
2023/10/02 01:07:47;;;;;;;1999.90;999.90;;;;;;;;;;4973691;28;20506;-62
2023/10/02 01:10:20;;;;;;;1999.90;999.90;;;;;;;;;;4974174;28;20471;-62
2023/10/02 01:12:49;;;;;;;1999.90;999.90;;;;;;;;;;4972582;28;20106;-64
2023/10/02 01:15:19;;;;;;;1999.90;999.90;;;;;;;;;;4973018;28;20035;-62
2023/10/02 01:17:47;;;;;;;1999.90;999.90;;;;;;;;;;4974040;28;20418;-63
2023/10/02 01:20:33;;;;;;;1999.90;999.90;;;;;;;;;;4971247;28;20094;-63
2023/10/02 01:23:11;;;;;;;1999.90;999.90;;;;;;;;;;4970322;28;20023;-62
2023/10/02 01:25:44;;;;;;;1999.90;999.90;;;;;;;;;;4974098;28;20035;-63
2023/10/02 01:28:13;;;;;;;1999.90;999.90;;;;;;;;;;4974187;28;20038;-64
2023/10/02 01:30:40;;;;;;;1999.90;999.90;;;;;;;;;;4974042;28;20190;-63
2023/10/02 01:33:11;;;;;;;1999.90;999.90;;;;;;;;;;4974056;28;20106;-63
2023/10/02 01:35:38;;;;;;;1999.90;999.90;;;;;;;;;;4973858;28;20486;-63
2023/10/02 01:38:12;;;;;;;1999.90;999.90;;;;;;;;;;4973710;28;20035;-63
2023/10/02 01:40:41;;;;;;;1999.90;999.90;;;;;;;;;;4973473;28;20089;-63
2023/10/02 01:43:14;;;;;;;1999.90;999.90;;;;;;;;;;4973658;28;20090;-63
2023/10/02 01:45:42;;;;;;;1999.90;999.90;;;;;;;;;;4973368;28;20031;-63
2023/10/02 01:48:15;;;;;;;1999.90;999.90;;;;;;;;;;4973315;28;20111;-63
2023/10/02 01:50:45;;;;;;;1999.90;999.90;;;;;;;;;;4973353;28;20023;-63
2023/10/02 01:53:30;;;;;;;1999.90;999.90;;;;;;;;;;4972819;28;20410;-63
2023/10/02 01:56:00;;;;;;;1999.90;999.90;;;;;;;;;;4972875;28;20131;-64
2023/10/02 01:58:29;;;;;;;1999.90;999.90;;;;;;;;;;4954869;28;20419;-63
2023/10/02 02:00:57;;;;;;;1999.90;999.90;;;;;;;;;;4973286;28;20027;-63
2023/10/02 02:03:27;;;;;;;1999.90;999.90;;;;;;;;;;4973058;28;20033;-63
2023/10/02 02:05:53;;;;;;;1999.90;999.90;;;;;;;;;;4972791;28;20038;-63
2023/10/02 02:08:22;;;;;;;1999.90;999.90;;;;;;;;;;4972691;28;20106;-63
2023/10/02 02:10:52;;;;;;;1999.90;999.90;;;;;;;;;;4973161;28;20072;-63
2023/10/02 02:13:21;;;;;;;1999.90;999.90;;;;;;;;;;4973144;28;20611;-63
2023/10/02 02:15:51;;;;;;;1999.90;999.90;;;;;;;;;;4972979;28;20038;-63
2023/10/02 02:18:19;;;;;;;1999.90;999.90;;;;;;;;;;4973155;28;20027;-63
2023/10/02 02:20:58;;;;;;;1999.90;999.90;;;;;;;;;;4973173;28;20494;-65
2023/10/02 02:23:27;;;;;;;1999.90;999.90;;;;;;;;;;4973145;28;20470;-63
2023/10/02 02:25:54;;;;;;;1999.90;999.90;;;;;;;;;;4972704;28;20043;-64
2023/10/02 02:28:21;;;;;;;1999.90;999.90;;;;;;;;;;4972779;28;20055;-64
2023/10/02 02:30:47;;;;;;;1999.90;999.90;;;;;;;;;;4972912;28;20132;-64
2023/10/02 02:33:14;;;;;;;1999.90;999.90;;;;;;;;;;4972931;28;20035;-63
2023/10/02 02:35:41;;;;;;;1999.90;999.90;;;;;;;;;;4972919;28;20066;-62
2023/10/02 02:38:17;;;;;;;1999.90;999.90;;;;;;;;;;4972604;28;20033;-62
2023/10/02 02:40:43;;;;;;;1999.90;999.90;;;;;;;;;;4973172;28;20035;-63
2023/10/02 02:43:19;;;;;;;1999.90;999.90;;;;;;;;;;4972719;28;20149;-62
2023/10/02 02:45:45;;;;;;;1999.90;999.90;;;;;;;;;;4972576;28;20027;-63
2023/10/02 02:48:12;;;;;;;1999.90;999.90;;;;;;;;;;4972284;28;20026;-63
2023/10/02 02:50:40;;;;;;;1999.90;999.90;;;;;;;;;;4972135;28;20033;-63
2023/10/02 02:53:23;;;;;;;1999.90;999.90;;;;;;;;;;4972497;28;20081;-63
2023/10/02 02:56:15;;;;;;;1999.90;999.90;;;;;;;;;;4972332;28;20046;-63
2023/10/02 02:58:44;;;;;;;1999.90;999.90;;;;;;;;;;4972381;28;20030;-63
2023/10/02 03:01:21;;;;;;;1999.90;999.90;;;;;;;;;;4972416;28;20023;-62
2023/10/02 03:04:11;;;;;;;1999.90;999.90;;;;;;;;;;4971434;28;20471;-63
2023/10/02 03:06:37;;;;;;;1999.90;999.90;;;;;;;;;;4971697;28;20712;-62
2023/10/02 03:09:06;;;;;;;1999.90;999.90;;;;;;;;;;4971710;28;20049;-62
2023/10/02 03:11:32;;;;;;;1999.90;999.90;;;;;;;;;;4971948;28;20503;-63
2023/10/02 03:14:16;;;;;;;1999.90;999.90;;;;;;;;;;4971944;28;20096;-63
2023/10/02 03:16:45;;;;;;;1999.90;999.90;;;;;;;;;;4972273;28;20027;-63
2023/10/02 03:19:13;;;;;;;1999.90;999.90;;;;;;;;;;4971749;28;20391;-62
2023/10/02 03:21:42;;;;;;;1999.90;999.90;;;;;;;;;;4972047;28;20026;-63
2023/10/02 03:24:12;;;;;;;1999.90;999.90;;;;;;;;;;4971483;28;20526;-63
2023/10/02 03:26:38;;;;;;;1999.90;999.90;;;;;;;;;;4971726;28;20038;-64
2023/10/02 03:29:05;;;;;;;1999.90;999.90;;;;;;;;;;4971853;28;20038;-62
2023/10/02 03:31:51;;;;;;;1999.90;999.90;;;;;;;;;;4971849;28;20023;-63
2023/10/02 03:34:30;;;;;;;1999.90;999.90;;;;;;;;;;4971954;28;20026;-63
2023/10/02 03:39:52;;;;;;;1999.90;999.90;;;;;;;;;;4971577;28;20027;-62
2023/10/02 03:42:22;;;;;;;1999.90;999.90;;;;;;;;;;4971405;28;20035;-62
2023/10/02 03:44:56;;;;;;;1999.90;999.90;;;;;;;;;;4971587;28;20081;-64
2023/10/02 03:47:24;;;;;;;1999.90;999.90;;;;;;;;;;4971655;28;20045;-63
2023/10/02 03:49:51;;;;;;;1999.90;999.90;;;;;;;;;;4971817;28;20027;-63
2023/10/02 03:52:17;;;;;;;1999.90;999.90;;;;;;;;;;4971627;28;20058;-62
2023/10/02 03:54:49;;;;;;;1999.90;999.90;;;;;;;;;;4971276;28;20043;-63
2023/10/02 04:00:12;;;;;;;1999.90;999.90;;;;;;;;;;4971738;28;20038;-63
2023/10/02 04:02:43;;;;;;;1999.90;999.90;;;;;;;;;;4971404;28;20038;-63
2023/10/02 04:05:10;;;;;;;1999.90;999.90;;;;;;;;;;4971645;28;20038;-63
2023/10/02 04:07:36;;;;;;;1999.90;999.90;;;;;;;;;;4971348;28;20030;-63
2023/10/02 04:10:06;;;;;;;1999.90;999.90;;;;;;;;;;4971474;28;20030;-62
2023/10/02 04:12:50;;;;;;;1999.90;999.90;;;;;;;;;;4954240;28;20391;-62
2023/10/02 04:15:16;;;;;;;1999.90;999.90;;;;;;;;;;4971801;28;20459;-62
2023/10/02 04:17:49;;;;;;;1999.90;999.90;;;;;;;;;;4975361;28;20019;-62
2023/10/02 04:20:27;;;;;;;1999.90;999.90;;;;;;;;;;4975076;28;20026;-63
2023/10/02 04:22:54;;;;;;;1999.90;999.90;;;;;;;;;;4974677;28;20406;-63
2023/10/02 04:25:24;;;;;;;1999.90;999.90;;;;;;;;;;4974984;28;20804;-63
2023/10/02 04:32:51;;;;;;;1999.90;999.90;;;;;;;;;;4975035;28;20498;-62
2023/10/02 04:38:07;;;;;;;1999.90;999.90;;;;;;;;;;4974456;28;20090;-62
2023/10/02 04:41:19;;;;;;;1999.90;999.90;;;;;;;;;;4974667;28;20550;-63
2023/10/02 04:43:26;;;;;;;1999.90;999.90;;;;;;;;;;4970832;28;20097;-62
2023/10/02 04:46:01;;;;;;;1999.90;999.90;;;;;;;;;;4974632;28;20057;-62
2023/10/02 04:48:38;;;;;;;1999.90;999.90;;;;;;;;;;4974678;28;20057;-62
2023/10/02 04:51:07;;;;;;;1999.90;999.90;;;;;;;;;;4974650;28;20034;-63
2023/10/02 04:53:35;;;;;;;1999.90;999.90;;;;;;;;;;4974336;28;20057;-62
2023/10/02 04:56:07;;;;;;;1999.90;999.90;;;;;;;;;;4973640;28;20146;-63
2023/10/02 04:58:49;;;;;;;1999.90;999.90;;;;;;;;;;4973952;28;20451;-62
2023/10/02 05:01:29;;;;;;;1999.90;999.90;;;;;;;;;;4974240;28;20031;-63
2023/10/02 05:04:07;;;;;;;1999.90;999.90;;;;;;;;;;4973937;28;20110;-62
2023/10/02 05:06:44;;;;;;;1999.90;999.90;;;;;;;;;;4973946;28;20105;-63
2023/10/02 05:14:47;;;;;;;1999.90;999.90;;;;;;;;;;4895294;29;20428;-62
2023/10/02 05:17:17;;;;;;;1999.90;999.90;;;;;;;;;;4895726;29;20081;-62
2023/10/02 05:20:04;;;;;;;1999.90;999.90;;;;;;;;;;4895905;29;20059;-63
2023/10/02 05:22:31;;;;;;;1999.90;999.90;;;;;;;;;;4895555;29;20221;-63
2023/10/02 05:24:58;;;;;;;1999.90;999.90;;;;;;;;;;4894819;29;20059;-63
2023/10/02 05:27:29;;;;;;;1999.90;999.90;;;;;;;;;;4894372;29;20035;-64
2023/10/02 05:29:58;;;;;;;1999.90;999.90;;;;;;;;;;4879194;29;20573;-64
2023/10/02 05:32:24;;;;;;;1999.90;999.90;;;;;;;;;;4895164;29;20052;-65
2023/10/02 05:35:16;;;;;;;1999.90;999.90;;;;;;;;;;4894682;29;20524;-63
2023/10/02 05:37:44;;;;;;;1999.90;999.90;;;;;;;;;;4894158;29;20044;-64
2023/10/02 05:48:27;;;;;;;1999.90;999.90;;;;;;;;;;4894911;29;20059;-64
2023/10/02 05:50:57;;;;;;;1999.90;999.90;;;;;;;;;;4931317;28;20540;-64
2023/10/02 05:53:34;;;;;;;1999.90;999.90;;;;;;;;;;4973170;28;20121;-64
2023/10/02 05:58:36;;;;;;;1999.90;999.90;;;;;;;;;;4972977;28;20045;-64
2023/10/02 06:01:06;;;;;;;1999.90;999.90;;;;;;;;;;4973203;28;20022;-63
2023/10/02 06:03:36;;;;;;;1999.90;999.90;;;;;;;;;;4973206;28;20029;-63
2023/10/02 06:06:15;;;;;;;1999.90;999.90;;;;;;;;;;4973007;28;20035;-62
2023/10/02 06:08:49;;;;;;;1999.90;999.90;;;;;;;;;;4973110;28;20522;-63
2023/10/02 06:14:14;;;;;;;1999.90;999.90;;;;;;;;;;4893833;29;20588;-63
2023/10/02 06:16:46;;;;;;;1999.90;999.90;;;;;;;;;;4894529;29;20393;-63
2023/10/02 06:19:15;;;;;;;1999.90;999.90;;;;;;;;;;4894259;29;20068;-64
2023/10/02 06:24:29;;;;;;;1999.90;999.90;;;;;;;;;;4893037;29;20040;-63
2023/10/02 06:26:58;;;;;;;;;;;;;;;;;;4893881;29;20496;-62
2023/10/02 06:29:29;;;;;;;1999.90;999.90;;;;;;;;;;4867712;29;19939;-62
2023/10/02 06:31:59;;;;;;;1999.90;999.90;;;;;;;;;;4866379;29;20038;-62
2023/10/02 06:34:36;;;;;;;1999.90;999.90;;;;;;;;;;4864724;29;20033;-62
2023/10/02 06:37:07;;;;;;;1999.90;999.90;;;;;;;;;;4865698;29;20068;-61
2023/10/02 06:39:35;;;;;;;1999.90;999.90;;;;;;;;;;4856744;29;20066;-61
2023/10/02 06:42:04;;;;;;;1999.90;999.90;;;;;;;;;;4856689;29;20033;-61
2023/10/02 06:44:41;;;;;;;1999.90;999.90;;;;;;;;;;4856114;29;20128;-61
2023/10/02 06:47:13;;;;;;;1999.90;999.90;;;;;;;;;;4856443;29;20036;-62
2023/10/02 06:49:44;;;;;;;1999.90;999.90;;;;;;;;;;4863637;29;20037;-63
2023/10/02 06:52:16;;;;;;;1999.90;999.90;;;;;;;;;;4934132;29;20062;-60
2023/10/02 06:54:48;;;;;;;1999.90;999.90;;;;;;;;;;4933477;29;20460;-61
2023/10/02 06:57:15;;;;;;;1999.90;999.90;;;;;;;;;;4933724;29;20062;-62
2023/10/02 06:59:51;;;;;;;1999.90;999.90;;;;;;;;;;4933802;29;20032;-61
2023/10/02 07:02:17;;;;;;;1999.90;999.90;;;;;;;;;;4934009;29;20030;-62
2023/10/02 07:04:44;;;;;;;1999.90;999.90;;;;;;;;;;4933565;29;20496;-62
2023/10/02 07:07:12;;;;;;;1999.90;999.90;;;;;;;;;;4933588;29;20028;-62
2023/10/02 07:09:39;;;;;;;1999.90;999.90;;;;;;;;;;4938619;29;20038;-62
2023/10/02 07:12:09;;;;;;;1999.90;999.90;;;;;;;;;;4940860;29;20034;-63
2023/10/02 07:14:38;;;;;;;1999.90;999.90;;;;;;;;;;4941800;29;20046;-64
2023/10/02 07:17:16;;;;;;;1999.90;999.90;;;;;;;;;;4942041;29;20027;-64
2023/10/02 07:19:49;;;;;;;1999.90;999.90;;;;;;;;;;4941719;29;20034;-63
2023/10/02 07:22:23;;;;;;;1999.90;999.90;;;;;;;;;;4942375;29;20479;-66
2023/10/02 07:24:52;;;;;;;1999.90;999.90;;;;;;;;;;4942128;29;20032;-63
2023/10/02 07:27:25;;;;;;;1999.90;999.90;;;;;;;;;;4941835;29;20027;-64
2023/10/02 07:29:52;;;;;;;1999.90;999.90;;;;;;;;;;4943531;29;20042;-64
2023/10/02 07:32:19;;;;;;;1999.90;999.90;;;;;;;;;;4943681;28;20031;-63
2023/10/02 07:34:46;;;;;;;1999.90;999.90;;;;;;;;;;4944766;29;20128;-63
2023/10/02 07:37:15;;;;;;;1999.90;999.90;;;;;;;;;;4925930;29;20026;-63
2023/10/02 07:39:42;;;;;;;1999.90;999.90;;;;;;;;;;4928616;29;20427;-63
2023/10/02 07:42:10;;;;;;;1999.90;999.90;;;;;;;;;;4943059;29;20023;-63
2023/10/02 07:44:36;;;;;;;1999.90;999.90;;;;;;;;;;4932991;29;20032;-64
2023/10/02 07:47:55;;;;;;;1999.90;999.90;;;;;;;;;;4933322;29;20492;-64
2023/10/02 07:49:59;;;;;;;1999.90;999.90;;;;;;;;;;4929439;29;20151;-65
2023/10/02 07:52:35;;;;;;;1999.90;999.90;;;;;;;;;;4936609;29;20467;-63
2023/10/02 07:55:01;;;;;;;1999.90;999.90;;;;;;;;;;4936857;29;20039;-64
2023/10/02 07:57:30;;;;;;;1999.90;999.90;;;;;;;;;;4936730;29;20091;-64
2023/10/02 08:00:05;;;;;;;1999.90;999.90;;;;;;;;;;4939186;29;20508;-64
2023/10/02 08:02:33;;;;;;;;;;;;;;;;;;4949146;29;20038;-63
2023/10/02 08:05:02;;;;;;;1999.90;999.90;;;;;;;;;;4955890;29;19918;-64
2023/10/02 08:07:29;;;;;;;1999.90;999.90;;;;;;;;;;4952931;29;20039;-62
2023/10/02 08:09:57;;;;;;;1999.90;999.90;;;;;;;;;;4936475;29;20028;-65
2023/10/02 08:12:29;;;;;;;1999.90;999.90;;;;;;;;;;4942752;29;20098;-62
2023/10/02 08:14:59;;;;;;;1999.90;999.90;;;;;;;;;;4944416;29;20094;-62
2023/10/02 08:18:03;;;;;;;1999.90;999.90;;;;;;;;;;4944904;29;20023;-62
2023/10/02 08:20:31;;;;;;;1999.90;999.90;;;;;;;;;;4946522;29;20046;-63
2023/10/02 08:22:58;;;;;;;1999.90;999.90;;;;;;;;;;4946639;29;20015;-64
2023/10/02 08:25:26;;;;;;;1999.90;999.90;;;;;;;;;;4945418;29;20137;-66
2023/10/02 08:27:58;;;;;;;1999.90;999.90;;;;;;;;;;4944855;29;20114;-64
2023/10/02 08:30:31;;;;;;;1999.90;999.90;;;;;;;;;;4945253;29;20024;-63
2023/10/02 08:33:08;;;;;;;1999.90;999.90;;;;;;;;;;4944287;29;20027;-65
2023/10/02 08:35:37;;;;;;;1999.90;999.90;;;;;;;;;;4943955;29;20054;-64
2023/10/02 08:38:07;;;;;;;1999.90;999.90;;;;;;;;;;4944685;29;20464;-62
2023/10/02 08:40:33;;;;;;;1999.90;999.90;;;;;;;;;;4944217;29;20023;-64
2023/10/02 08:42:59;;;;;;;1999.90;999.90;;;;;;;;;;4945826;29;20380;-61
2023/10/02 08:45:26;;;;;;;1999.90;999.90;;;;;;;;;;4944457;29;20491;-63
2023/10/02 08:47:52;;;;;;;1999.90;999.90;;;;;;;;;;4944904;29;20028;-64
2023/10/02 08:50:18;;;;;;;1999.90;999.90;;;;;;;;;;4945671;29;20060;-63
2023/10/02 08:52:50;;;;;;;1999.90;999.90;;;;;;;;;;4944526;29;20038;-64
2023/10/02 08:58:17;;;;;;;1999.90;999.90;;;;;;;;;;4944991;29;20106;-63
2023/10/02 09:01:06;;;;;;;1999.90;999.90;;;;;;;;;;4944833;29;20036;-62
2023/10/02 09:03:42;;;;;;;1999.90;999.90;;;;;;;;;;4928191;29;20494;-62
2023/10/02 09:06:35;;;;;;;1999.90;999.90;;;;;;;;;;4944320;29;20491;-64
2023/10/02 09:09:22;;;;;;;1999.90;999.90;;;;;;;;;;4945551;29;20020;-64
2023/10/02 09:11:58;;;;;;;1999.90;999.90;;;;;;;;;;4945446;29;20056;-62
2023/10/02 09:17:07;;;;;;;1999.90;999.90;;;;;;;;;;4943414;28;20483;-65
2023/10/02 09:19:37;;;;;;;1999.90;999.90;;;;;;;;;;4944288;28;20019;-64
2023/10/02 09:22:07;;;;;;;1999.90;999.90;;;;;;;;;;4944860;29;20020;-63
2023/10/02 09:24:36;;;;;;;1999.90;999.90;;;;;;;;;;4946296;29;20020;-63
2023/10/02 09:27:30;;;;;;;1999.90;999.90;;;;;;;;;;4943101;29;21298;-62
2023/10/02 09:32:51;;;;;;;1999.90;999.90;;;;;;;;;;4941125;29;20501;-62
2023/10/02 09:35:32;;;;;;;1999.90;999.90;;;;;;;;;;4943717;29;20478;-63
2023/10/02 09:38:03;;;;;;;1999.90;999.90;;;;;;;;;;4944692;28;20145;-62
2023/10/02 09:43:22;;;;;;;1999.90;999.90;;;;;;;;;;4943402;29;20098;-62
2023/10/02 09:45:48;;;;;;;1999.90;999.90;;;;;;;;;;4945839;29;20024;-64
2023/10/02 09:48:46;;;;;;;1999.90;999.90;;;;;;;;;;4954579;29;20027;-65
2023/10/02 09:51:29;;;;;;;1999.90;999.90;;;;;;;;;;4954241;29;20023;-67
2023/10/02 09:54:13;;;;;;;1999.90;999.90;;;;;;;;;;4954175;29;20075;-63
2023/10/02 09:57:04;;;;;;;1999.90;999.90;;;;;;;;;;4953242;29;20569;-63
2023/10/02 09:59:37;;;;;;;1999.90;999.90;;;;;;;;;;4953964;29;20039;-63
2023/10/02 10:05:00;;;;;;;1999.90;999.90;;;;;;;;;;4953586;29;20031;-64
2023/10/02 10:07:37;;;;;;;1999.90;999.90;;;;;;;;;;4953839;29;20044;-64
2023/10/02 10:10:27;;;;;;;1999.90;999.90;;;;;;;;;;4953762;29;20857;-64
2023/10/02 10:12:55;;;;;;;1999.90;999.90;;;;;;;;;;4953211;29;20023;-65
2023/10/02 10:15:25;;;;;;;1999.90;999.90;;;;;;;;;;4952905;28;20086;-65
2023/10/02 10:17:51;;;;;;;1999.90;999.90;;;;;;;;;;4953392;29;20023;-67
2023/10/02 10:20:21;;;;;;;1999.90;999.90;;;;;;;;;;4953338;29;20034;-66
2023/10/02 10:22:56;;;;;;;1999.90;999.90;;;;;;;;;;4953331;29;20031;-64
2023/10/02 10:28:08;;;;;;;1999.90;999.90;;;;;;;;;;4953035;29;20035;-67
2023/10/02 10:35:37;;;;;;;;;;;;;;;;;;4953373;29;20046;-65
2023/10/02 10:38:29;;;;;;;1999.90;999.90;;;;;;;;;;4953190;29;20350;-65
2023/10/02 10:40:55;;;;;;;1999.90;999.90;;;;;;;;;;4952806;29;20128;-65
2023/10/02 10:43:26;;;;;;;1999.90;999.90;;;;;;;;;;4952913;29;20266;-66
2023/10/02 10:45:55;;;;;;;1999.90;999.90;;;;;;;;;;4936368;29;20391;-66
2023/10/02 10:48:22;;;;;;;1999.90;999.90;;;;;;;;;;4953278;29;20031;-66
2023/10/02 10:50:57;;;;;;;1999.90;999.90;;;;;;;;;;4952991;29;20031;-67
2023/10/02 10:53:30;;;;;;;1999.90;999.90;;;;;;;;;;4952979;29;20082;-65
2023/10/02 10:56:03;;;;;;;1999.90;999.90;;;;;;;;;;4952662;29;20047;-66
2023/10/02 10:58:36;;;;;;;1999.90;999.90;;;;;;;;;;4952909;29;20038;-66
2023/10/02 11:01:07;;;;;;;1999.90;999.90;;;;;;;;;;4952917;29;20486;-64
2023/10/02 11:03:34;;;;;;;1999.90;999.90;;;;;;;;;;4953081;29;20042;-65
2023/10/02 11:06:04;;;;;;;1999.90;999.90;;;;;;;;;;4952857;29;20487;-64
2023/10/02 11:08:33;;;;;;;1999.90;999.90;;;;;;;;;;4952617;29;20115;-64
2023/10/02 11:11:04;;;;;;;1999.90;999.90;;;;;;;;;;4952406;29;20487;-64
2023/10/02 11:13:50;;;;;;;1999.90;999.90;;;;;;;;;;4952497;29;20228;-64
2023/10/02 11:16:39;;;;;;;1999.90;999.90;;;;;;;;;;4946122;29;20075;-64
2023/10/02 11:22:03;;;;;;;1999.90;999.90;;;;;;;;;;4949368;29;20818;-65
2023/10/02 11:24:29;;;;;;;;;;;;;;;;;;4942495;29;20491;-64
2023/10/02 11:27:06;;;;;;;1999.90;999.90;;;;;;;;;;4940624;28;19914;-65
2023/10/02 11:29:40;;;;;;;1999.90;999.90;;;;;;;;;;4941971;29;20042;-63
2023/10/02 11:32:19;;;;;;;1999.90;999.90;;;;;;;;;;4941382;29;20103;-66
2023/10/02 11:34:49;;;;;;;1999.90;999.90;;;;;;;;;;4940962;29;20431;-63
2023/10/02 11:37:16;;;;;;;1999.90;999.90;;;;;;;;;;4941130;29;20027;-64
2023/10/02 11:39:50;;;;;;;1999.90;999.90;;;;;;;;;;4948006;28;20483;-63
2023/10/02 11:42:17;;;;;;;1999.90;999.90;;;;;;;;;;4951751;28;20054;-64
2023/10/02 11:44:44;;;;;;;1999.90;999.90;;;;;;;;;;4942977;29;20020;-65
2023/10/02 11:47:10;;;;;;;1999.90;999.90;;;;;;;;;;4941337;29;20456;-63
2023/10/02 11:49:36;;;;;;;1999.90;999.90;;;;;;;;;;4941176;29;20023;-63
2023/10/02 11:52:03;;;;;;;1999.90;999.90;;;;;;;;;;4942888;29;20023;-64
2023/10/02 11:54:35;;;;;;;1999.90;999.90;;;;;;;;;;4941569;29;20170;-63
2023/10/02 11:57:01;;;;;;;1999.90;999.90;;;;;;;;;;4940181;29;20282;-65
2023/10/02 11:59:30;;;;;;;1999.90;999.90;;;;;;;;;;4942535;29;20070;-64
2023/10/02 12:01:57;;;;;;;1999.90;999.90;;;;;;;;;;4943502;28;20106;-64
2023/10/02 12:04:26;;;;;;;1999.90;999.90;;;;;;;;;;4948896;29;20061;-64
2023/10/02 12:06:54;;;;;;;1999.90;999.90;;;;;;;;;;4951818;29;20085;-63
2023/10/02 12:09:24;;;;;;;1999.90;999.90;;;;;;;;;;4951855;29;20046;-63
2023/10/02 12:11:50;;;;;;;1999.90;999.90;;;;;;;;;;4952178;28;20027;-63
2023/10/02 12:14:16;;;;;;;1999.90;999.90;;;;;;;;;;4950975;29;20086;-62
2023/10/02 12:16:43;;;;;;;1999.90;999.90;;;;;;;;;;4951394;29;20073;-64
2023/10/02 12:19:10;;;;;;;1999.90;999.90;;;;;;;;;;4952118;29;20038;-63
2023/10/02 12:21:37;;;;;;;1999.90;999.90;;;;;;;;;;4951968;29;20471;-63
2023/10/02 12:24:05;;;;;;;1999.90;999.90;;;;;;;;;;4951873;29;20482;-63
2023/10/02 12:26:32;;;;;;;1999.90;999.90;;;;;;;;;;4933896;29;20510;-64
2023/10/02 12:29:00;;;;;;;1999.90;999.90;;;;;;;;;;4925046;29;20126;-65
2023/10/02 12:31:26;;;;;;;1999.90;999.90;;;;;;;;;;4945520;29;20075;-64
2023/10/02 12:33:52;;;;;;;1999.90;999.90;;;;;;;;;;4939921;29;20114;-63
2023/10/02 12:36:23;;;;;;;1999.90;999.90;;;;;;;;;;4946239;28;20035;-64
2023/10/02 12:38:52;;;;;;;1999.90;999.90;;;;;;;;;;4955358;29;20028;-64
2023/10/02 12:41:23;;;;;;;1999.90;999.90;;;;;;;;;;4955424;29;20031;-63
2023/10/02 12:43:56;;;;;;;1999.90;999.90;;;;;;;;;;4938304;29;20062;-62
2023/10/02 12:46:26;;;;;;;1999.90;999.90;;;;;;;;;;4945850;29;20124;-63
2023/10/02 12:48:52;;;;;;;1999.90;999.90;;;;;;;;;;4941341;29;20027;-63
2023/10/02 12:51:19;;;;;;;1999.90;999.90;;;;;;;;;;4947356;29;20083;-62
2023/10/02 12:53:45;;;;;;;1999.90;999.90;;;;;;;;;;4943277;28;20027;-63
2023/10/02 12:56:20;;;;;;;1999.90;999.90;;;;;;;;;;4947969;28;20044;-65
2023/10/02 12:58:50;;;;;;;1999.90;999.90;;;;;;;;;;4942023;28;20030;-65
2023/10/02 13:01:24;;;;;;;1999.90;999.90;;;;;;;;;;4972137;28;20451;-64
2023/10/02 13:03:51;;;;;;;1999.90;999.90;;;;;;;;;;4973615;28;20457;-63
2023/10/02 13:06:17;;;;;;;1999.90;999.90;;;;;;;;;;4973830;28;20019;-66
2023/10/02 13:08:44;;;;;;;1999.90;999.90;;;;;;;;;;4973886;28;20034;-64
2023/10/02 13:11:12;;;;;;;1999.90;999.90;;;;;;;;;;4973544;28;20090;-65
2023/10/02 13:13:39;;;;;;;1999.90;999.90;;;;;;;;;;4955153;28;20031;-66
2023/10/02 13:16:05;;;;;;;1999.90;999.90;;;;;;;;;;4954078;29;20101;-65
2023/10/02 13:18:31;;;;;;;1999.90;999.90;;;;;;;;;;4954253;29;20383;-65
2023/10/02 13:20:59;;;;;;;1999.90;999.90;;;;;;;;;;4954290;29;20027;-66
2023/10/02 13:23:25;;;;;;;1999.90;999.90;;;;;;;;;;4954483;29;20033;-66
2023/10/02 13:25:53;;;;;;;1999.90;999.90;;;;;;;;;;4954093;28;20027;-64
2023/10/02 13:28:20;;;;;;;1999.90;999.90;;;;;;;;;;4953009;29;20033;-64
2023/10/02 13:30:46;;;;;;;1999.90;999.90;;;;;;;;;;4953471;28;20622;-64
2023/10/02 13:33:12;;;;;;;1999.90;999.90;;;;;;;;;;4953440;29;20027;-64
2023/10/02 13:35:39;;;;;;;1999.90;999.90;;;;;;;;;;4949224;29;20451;-64
2023/10/02 13:38:10;;;;;;;1999.90;999.90;;;;;;;;;;4951250;29;20031;-65
2023/10/02 13:40:38;;;;;;;1999.90;999.90;;;;;;;;;;4953506;29;20034;-65
2023/10/02 13:43:05;;;;;;;1999.90;999.90;;;;;;;;;;4953317;29;20023;-66
2023/10/02 13:45:35;;;;;;;1999.90;999.90;;;;;;;;;;4953664;29;20114;-61
2023/10/02 13:48:02;;;;;;;1999.90;999.90;;;;;;;;;;4953231;28;20035;-64
2023/10/02 13:50:28;;;;;;;1999.90;999.90;;;;;;;;;;4953277;29;20027;-66
2023/10/02 13:52:54;;;;;;;1999.90;999.90;;;;;;;;;;4953713;29;20055;-64
2023/10/02 13:55:25;;;;;;;1999.90;999.90;;;;;;;;;;4954611;28;20031;-63
2023/10/02 13:57:51;;;;;;;1999.90;999.90;;;;;;;;;;4972583;28;20031;-64
2023/10/02 14:00:19;;;;;;;1999.90;999.90;;;;;;;;;;4971484;28;20034;-64
2023/10/02 14:02:45;;;;;;;1999.90;999.90;;;;;;;;;;4953627;29;20019;-63
2023/10/02 14:05:14;;;;;;;1999.90;999.90;;;;;;;;;;4953951;29;20106;-64
2023/10/02 14:07:41;;;;;;;1999.90;999.90;;;;;;;;;;4952761;29;20019;-62
2023/10/02 14:10:10;;;;;;;1999.90;999.90;;;;;;;;;;4967408;28;20026;-64
2023/10/02 14:12:38;;;;;;;1999.90;999.90;;;;;;;;;;4971653;28;20062;-63
2023/10/02 14:15:06;;;;;;;1999.90;999.90;;;;;;;;;;4972025;28;20130;-62
2023/10/02 14:17:36;;;;;;;1999.90;999.90;;;;;;;;;;4972239;28;20390;-61
2023/10/02 14:20:04;;;;;;;1999.90;999.90;;;;;;;;;;4972330;28;20081;-65
2023/10/02 14:22:33;;;;;;;1999.90;999.90;;;;;;;;;;4971842;28;20019;-64
2023/10/02 14:25:00;;;;;;;1999.90;999.90;;;;;;;;;;4971622;28;20026;-62
2023/10/02 14:27:26;;;;;;;1999.90;999.90;;;;;;;;;;4971365;28;20033;-63
2023/10/02 14:29:53;;;;;;;1999.90;999.90;;;;;;;;;;4971519;28;20093;-63
2023/10/02 14:32:19;;;;;;;1999.90;999.90;;;;;;;;;;4954871;28;20031;-66
2023/10/02 14:34:45;;;;;;;1999.90;999.90;;;;;;;;;;4952302;29;20114;-66
2023/10/02 14:37:11;;;;;;;1999.90;999.90;;;;;;;;;;4934079;29;20454;-65
2023/10/02 14:39:39;;;;;;;1999.90;999.90;;;;;;;;;;4952293;29;20352;-66
2023/10/02 14:42:10;;;;;;;1999.90;999.90;;;;;;;;;;4950484;28;20023;-65
2023/10/02 14:44:37;;;;;;;1999.90;999.90;;;;;;;;;;4951593;29;20121;-65
2023/10/02 14:47:03;;;;;;;1999.90;999.90;;;;;;;;;;4952007;29;20102;-61
2023/10/02 14:49:29;;;;;;;1999.90;999.90;;;;;;;;;;4953684;29;20027;-65
2023/10/02 14:51:55;;;;;;;1999.90;999.90;;;;;;;;;;4953990;28;20031;-64
2023/10/02 14:54:21;;;;;;;1999.90;999.90;;;;;;;;;;4970939;28;20105;-64
2023/10/02 14:56:47;;;;;;;1999.90;999.90;;;;;;;;;;4971153;28;20057;-64
2023/10/02 14:59:14;;;;;;;1999.90;999.90;;;;;;;;;;4971246;28;20037;-63
2023/10/02 15:01:40;;;;;;;1999.90;999.90;;;;;;;;;;4970711;28;20580;-62
2023/10/02 15:04:06;;;;;;;1999.90;999.90;;;;;;;;;;4971195;28;20039;-62
2023/10/02 15:06:32;;;;;;;1999.90;999.90;;;;;;;;;;4971359;28;20023;-63